METAR Formatted Surface Weather Observation
Issued by NWS Charleston, WV

Home | Current Version | Previous Version | Text Only | Print | Product List | Glossary On
Versions: 1 2 3 4 5 6
000
SAUS41 KRLX 302200 COR
MTRCRW
METAR KCRW 302154Z 21007KT 10SM FEW060 SCT100 SCT300 31/19 A3005 RMK
AO2 SLP165 T03110189



USA.gov is the U.S. government's official web portal to all federal, state and local government web resources and services.